sensor_id;sensor_type;location;lat;lon;timestamp;temperature;humidity
4874;DHT22;2451;49.970;9.068;2022-07-24T00:01:32;19.80;99.90
4874;DHT22;2451;49.970;9.068;2022-07-24T00:03:58;19.80;99.90
4874;DHT22;2451;49.970;9.068;2022-07-24T00:06:24;19.70;99.90
4874;DHT22;2451;49.970;9.068;2022-07-24T00:08:49;19.70;99.90
4874;DHT22;2451;49.970;9.068;2022-07-24T00:11:15;19.70;99.90
4874;DHT22;2451;49.970;9.068;2022-07-24T00:13:41;19.70;99.90
4874;DHT22;2451;49.970;9.068;2022-07-24T00:16:07;19.70;99.90
4874;DHT22;2451;49.970;9.068;2022-07-24T00:18:33;19.60;99.90
4874;DHT22;2451;49.970;9.068;2022-07-24T00:20:58;19.70;99.90
4874;DHT22;2451;49.970;9.068;2022-07-24T00:23:24;19.60;99.90
4874;DHT22;2451;49.970;9.068;2022-07-24T00:25:51;19.70;99.90
4874;DHT22;2451;49.970;9.068;2022-07-24T00:28:16;19.60;99.90
4874;DHT22;2451;49.970;9.068;2022-07-24T00:30:42;19.60;99.90
4874;DHT22;2451;49.970;9.068;2022-07-24T00:33:08;19.50;99.90
4874;DHT22;2451;49.970;9.068;2022-07-24T00:35:33;19.50;99.90
4874;DHT22;2451;49.970;9.068;2022-07-24T00:37:59;19.40;99.90
4874;DHT22;2451;49.970;9.068;2022-07-24T00:40:25;19.40;99.90
4874;DHT22;2451;49.970;9.068;2022-07-24T00:42:52;19.40;99.90
4874;DHT22;2451;49.970;9.068;2022-07-24T00:45:17;19.40;99.90
4874;DHT22;2451;49.970;9.068;2022-07-24T00:47:43;19.40;99.90
4874;DHT22;2451;49.970;9.068;2022-07-24T00:50:09;19.30;99.90
4874;DHT22;2451;49.970;9.068;2022-07-24T00:52:35;19.20;99.90
4874;DHT22;2451;49.970;9.068;2022-07-24T00:55:01;19.20;99.90
4874;DHT22;2451;49.970;9.068;2022-07-24T00:57:27;19.10;99.90
4874;DHT22;2451;49.970;9.068;2022-07-24T00:59:52;19.00;99.90
4874;DHT22;2451;49.970;9.068;2022-07-24T01:02:18;19.00;99.90
4874;DHT22;2451;49.970;9.068;2022-07-24T01:04:43;19.10;99.90
4874;DHT22;2451;49.970;9.068;2022-07-24T01:07:09;19.10;99.90
4874;DHT22;2451;49.970;9.068;2022-07-24T01:09:35;19.10;99.90
4874;DHT22;2451;49.970;9.068;2022-07-24T01:12:02;19.10;99.90
4874;DHT22;2451;49.970;9.068;2022-07-24T01:14:27;19.10;99.90
4874;DHT22;2451;49.970;9.068;2022-07-24T01:16:53;19.00;99.90
4874;DHT22;2451;49.970;9.068;2022-07-24T01:19:19;18.90;99.90
4874;DHT22;2451;49.970;9.068;2022-07-24T01:21:47;18.90;99.90
4874;DHT22;2451;49.970;9.068;2022-07-24T01:24:13;18.90;99.90
4874;DHT22;2451;49.970;9.068;2022-07-24T01:26:39;18.90;99.90
4874;DHT22;2451;49.970;9.068;2022-07-24T01:29:05;18.90;99.90
4874;DHT22;2451;49.970;9.068;2022-07-24T01:31:30;18.90;99.90
4874;DHT22;2451;49.970;9.068;2022-07-24T01:33:56;18.90;99.90
4874;DHT22;2451;49.970;9.068;2022-07-24T01:36:21;18.90;99.90
4874;DHT22;2451;49.970;9.068;2022-07-24T01:38:47;18.90;99.90
4874;DHT22;2451;49.970;9.068;2022-07-24T01:41:13;18.90;99.90
4874;DHT22;2451;49.970;9.068;2022-07-24T01:43:39;18.90;99.90
4874;DHT22;2451;49.970;9.068;2022-07-24T01:46:04;18.90;99.90
4874;DHT22;2451;49.970;9.068;2022-07-24T01:48:30;18.90;99.90
4874;DHT22;2451;49.970;9.068;2022-07-24T01:50:56;18.80;99.90
4874;DHT22;2451;49.970;9.068;2022-07-24T01:53:21;18.90;99.90
4874;DHT22;2451;49.970;9.068;2022-07-24T01:55:50;18.90;99.90
4874;DHT22;2451;49.970;9.068;2022-07-24T01:58:16;18.90;99.90
4874;DHT22;2451;49.970;9.068;2022-07-24T02:00:41;18.90;99.90
4874;DHT22;2451;49.970;9.068;2022-07-24T02:03:07;18.90;99.90
4874;DHT22;2451;49.970;9.068;2022-07-24T02:05:32;18.90;99.90
4874;DHT22;2451;49.970;9.068;2022-07-24T02:07:59;18.80;99.90
4874;DHT22;2451;49.970;9.068;2022-07-24T02:10:26;18.80;99.90
4874;DHT22;2451;49.970;9.068;2022-07-24T02:12:52;18.80;99.90
4874;DHT22;2451;49.970;9.068;2022-07-24T02:15:17;18.80;99.90
4874;DHT22;2451;49.970;9.068;2022-07-24T02:17:48;18.70;99.90
4874;DHT22;2451;49.970;9.068;2022-07-24T02:20:13;18.70;99.90
4874;DHT22;2451;49.970;9.068;2022-07-24T02:22:39;18.70;99.90
4874;DHT22;2451;49.970;9.068;2022-07-24T02:25:06;18.60;99.90
4874;DHT22;2451;49.970;9.068;2022-07-24T02:27:31;18.60;99.90
4874;DHT22;2451;49.970;9.068;2022-07-24T02:29:57;18.60;99.90
4874;DHT22;2451;49.970;9.068;2022-07-24T02:32:22;18.50;99.90
4874;DHT22;2451;49.970;9.068;2022-07-24T02:34:48;18.40;99.90
4874;DHT22;2451;49.970;9.068;2022-07-24T02:37:14;18.40;99.90
4874;DHT22;2451;49.970;9.068;2022-07-24T02:39:39;18.40;99.90
4874;DHT22;2451;49.970;9.068;2022-07-24T02:42:05;18.40;99.90
4874;DHT22;2451;49.970;9.068;2022-07-24T02:44:30;18.40;99.90
4874;DHT22;2451;49.970;9.068;2022-07-24T02:46:56;18.50;99.90
4874;DHT22;2451;49.970;9.068;2022-07-24T02:49:21;18.50;99.90
4874;DHT22;2451;49.970;9.068;2022-07-24T02:51:47;18.50;99.90
4874;DHT22;2451;49.970;9.068;2022-07-24T02:54:13;18.50;99.90
4874;DHT22;2451;49.970;9.068;2022-07-24T02:56:38;18.50;99.90
4874;DHT22;2451;49.970;9.068;2022-07-24T02:59:04;18.40;99.90
4874;DHT22;2451;49.970;9.068;2022-07-24T03:01:29;18.40;99.90
4874;DHT22;2451;49.970;9.068;2022-07-24T03:03:55;18.40;99.90
4874;DHT22;2451;49.970;9.068;2022-07-24T03:06:20;18.40;99.90
4874;DHT22;2451;49.970;9.068;2022-07-24T03:08:46;18.40;99.90
4874;DHT22;2451;49.970;9.068;2022-07-24T03:11:11;18.40;99.90
4874;DHT22;2451;49.970;9.068;2022-07-24T03:13:37;18.40;99.90
4874;DHT22;2451;49.970;9.068;2022-07-24T03:16:03;18.40;99.90
4874;DHT22;2451;49.970;9.068;2022-07-24T03:18:28;18.30;99.90
4874;DHT22;2451;49.970;9.068;2022-07-24T03:20:54;18.20;99.90
4874;DHT22;2451;49.970;9.068;2022-07-24T03:23:19;18.10;99.90
4874;DHT22;2451;49.970;9.068;2022-07-24T03:25:45;18.10;99.90
4874;DHT22;2451;49.970;9.068;2022-07-24T03:28:12;18.00;99.90
4874;DHT22;2451;49.970;9.068;2022-07-24T03:30:37;17.90;99.90
4874;DHT22;2451;49.970;9.068;2022-07-24T03:33:03;17.90;99.90
4874;DHT22;2451;49.970;9.068;2022-07-24T03:35:28;18.00;99.90
4874;DHT22;2451;49.970;9.068;2022-07-24T03:37:54;18.00;99.90
4874;DHT22;2451;49.970;9.068;2022-07-24T03:40:19;18.00;99.90
4874;DHT22;2451;49.970;9.068;2022-07-24T03:42:45;18.00;99.90
4874;DHT22;2451;49.970;9.068;2022-07-24T03:45:10;18.00;99.90
4874;DHT22;2451;49.970;9.068;2022-07-24T03:47:36;18.00;99.90
4874;DHT22;2451;49.970;9.068;2022-07-24T03:50:02;18.00;99.90
4874;DHT22;2451;49.970;9.068;2022-07-24T03:52:28;18.00;99.90
4874;DHT22;2451;49.970;9.068;2022-07-24T03:54:54;18.00;99.90
4874;DHT22;2451;49.970;9.068;2022-07-24T03:57:20;18.00;99.90
4874;DHT22;2451;49.970;9.068;2022-07-24T03:59:46;18.00;99.90
4874;DHT22;2451;49.970;9.068;2022-07-24T04:02:12;18.00;99.90
4874;DHT22;2451;49.970;9.068;2022-07-24T04:04:37;18.00;99.90
4874;DHT22;2451;49.970;9.068;2022-07-24T04:07:03;18.10;99.90
4874;DHT22;2451;49.970;9.068;2022-07-24T04:09:28;18.10;99.90
4874;DHT22;2451;49.970;9.068;2022-07-24T04:11:54;18.20;99.90
4874;DHT22;2451;49.970;9.068;2022-07-24T04:14:19;18.20;99.90
4874;DHT22;2451;49.970;9.068;2022-07-24T04:16:45;18.20;99.90
4874;DHT22;2451;49.970;9.068;2022-07-24T04:19:12;18.30;99.90
4874;DHT22;2451;49.970;9.068;2022-07-24T04:21:38;18.30;99.90
4874;DHT22;2451;49.970;9.068;2022-07-24T04:24:03;18.30;99.90
4874;DHT22;2451;49.970;9.068;2022-07-24T04:26:29;18.30;99.90
4874;DHT22;2451;49.970;9.068;2022-07-24T04:28:54;18.30;99.90
4874;DHT22;2451;49.970;9.068;2022-07-24T04:31:20;18.30;99.90
4874;DHT22;2451;49.970;9.068;2022-07-24T04:33:46;18.40;99.90
4874;DHT22;2451;49.970;9.068;2022-07-24T04:36:11;18.40;99.90
4874;DHT22;2451;49.970;9.068;2022-07-24T04:38:37;18.50;99.90
4874;DHT22;2451;49.970;9.068;2022-07-24T04:41:02;18.60;99.90
4874;DHT22;2451;49.970;9.068;2022-07-24T04:43:28;18.60;99.90
4874;DHT22;2451;49.970;9.068;2022-07-24T04:45:54;18.60;99.90
4874;DHT22;2451;49.970;9.068;2022-07-24T04:48:20;18.70;99.90
4874;DHT22;2451;49.970;9.068;2022-07-24T04:50:45;18.70;99.90
4874;DHT22;2451;49.970;9.068;2022-07-24T04:53:11;18.80;99.90
4874;DHT22;2451;49.970;9.068;2022-07-24T04:55:37;18.80;99.90
4874;DHT22;2451;49.970;9.068;2022-07-24T04:58:02;18.80;99.90
4874;DHT22;2451;49.970;9.068;2022-07-24T05:00:28;18.80;99.90
4874;DHT22;2451;49.970;9.068;2022-07-24T05:02:53;18.70;99.90
4874;DHT22;2451;49.970;9.068;2022-07-24T05:05:19;18.70;99.90
4874;DHT22;2451;49.970;9.068;2022-07-24T05:07:45;18.70;99.90
4874;DHT22;2451;49.970;9.068;2022-07-24T05:10:10;18.70;99.90
4874;DHT22;2451;49.970;9.068;2022-07-24T05:12:36;18.70;99.90
4874;DHT22;2451;49.970;9.068;2022-07-24T05:15:02;18.80;99.90
4874;DHT22;2451;49.970;9.068;2022-07-24T05:17:27;18.80;99.90
4874;DHT22;2451;49.970;9.068;2022-07-24T05:19:53;18.80;99.90
4874;DHT22;2451;49.970;9.068;2022-07-24T05:22:18;18.90;99.90
4874;DHT22;2451;49.970;9.068;2022-07-24T05:24:44;19.00;99.90
4874;DHT22;2451;49.970;9.068;2022-07-24T05:27:10;19.10;99.90
4874;DHT22;2451;49.970;9.068;2022-07-24T05:29:35;19.10;99.90
4874;DHT22;2451;49.970;9.068;2022-07-24T05:32:01;19.20;99.90
4874;DHT22;2451;49.970;9.068;2022-07-24T05:34:26;19.30;99.90
4874;DHT22;2451;49.970;9.068;2022-07-24T05:36:52;19.30;99.90
4874;DHT22;2451;49.970;9.068;2022-07-24T05:39:17;19.40;99.90
4874;DHT22;2451;49.970;9.068;2022-07-24T05:41:43;19.50;99.90
4874;DHT22;2451;49.970;9.068;2022-07-24T05:44:08;19.60;99.90
4874;DHT22;2451;49.970;9.068;2022-07-24T05:46:34;19.70;99.90
4874;DHT22;2451;49.970;9.068;2022-07-24T05:48:59;19.70;99.90
4874;DHT22;2451;49.970;9.068;2022-07-24T05:51:25;19.80;99.90
4874;DHT22;2451;49.970;9.068;2022-07-24T05:53:53;19.90;99.90
4874;DHT22;2451;49.970;9.068;2022-07-24T05:56:19;19.90;99.90
4874;DHT22;2451;49.970;9.068;2022-07-24T05:58:44;20.00;99.90
4874;DHT22;2451;49.970;9.068;2022-07-24T06:01:10;20.00;99.90
4874;DHT22;2451;49.970;9.068;2022-07-24T06:03:35;20.00;99.90
4874;DHT22;2451;49.970;9.068;2022-07-24T06:06:03;20.10;99.90
4874;DHT22;2451;49.970;9.068;2022-07-24T06:08:29;20.20;99.90
4874;DHT22;2451;49.970;9.068;2022-07-24T06:10:55;20.30;99.90
4874;DHT22;2451;49.970;9.068;2022-07-24T06:13:20;20.60;99.90
4874;DHT22;2451;49.970;9.068;2022-07-24T06:15:46;20.80;99.90
4874;DHT22;2451;49.970;9.068;2022-07-24T06:18:11;20.90;99.90
4874;DHT22;2451;49.970;9.068;2022-07-24T06:20:37;21.00;99.90
4874;DHT22;2451;49.970;9.068;2022-07-24T06:23:02;21.20;99.90
4874;DHT22;2451;49.970;9.068;2022-07-24T06:25:28;21.30;99.90
4874;DHT22;2451;49.970;9.068;2022-07-24T06:27:53;21.40;99.90
4874;DHT22;2451;49.970;9.068;2022-07-24T06:30:24;21.50;99.90
4874;DHT22;2451;49.970;9.068;2022-07-24T06:32:54;21.70;99.90
4874;DHT22;2451;49.970;9.068;2022-07-24T06:35:20;22.00;99.90
4874;DHT22;2451;49.970;9.068;2022-07-24T06:37:46;22.10;99.90
4874;DHT22;2451;49.970;9.068;2022-07-24T06:40:12;22.20;99.90
4874;DHT22;2451;49.970;9.068;2022-07-24T06:42:37;22.40;99.90
4874;DHT22;2451;49.970;9.068;2022-07-24T06:45:03;22.50;99.90
4874;DHT22;2451;49.970;9.068;2022-07-24T06:47:29;22.70;99.90
4874;DHT22;2451;49.970;9.068;2022-07-24T06:49:55;22.90;99.90
4874;DHT22;2451;49.970;9.068;2022-07-24T06:52:21;23.00;99.90
4874;DHT22;2451;49.970;9.068;2022-07-24T06:54:47;23.10;99.90
4874;DHT22;2451;49.970;9.068;2022-07-24T06:57:12;23.30;99.90
4874;DHT22;2451;49.970;9.068;2022-07-24T06:59:39;23.50;99.90
4874;DHT22;2451;49.970;9.068;2022-07-24T07:02:04;23.60;99.90
4874;DHT22;2451;49.970;9.068;2022-07-24T07:04:30;23.70;99.90
4874;DHT22;2451;49.970;9.068;2022-07-24T07:06:56;23.90;99.90
4874;DHT22;2451;49.970;9.068;2022-07-24T07:09:21;24.10;99.90
4874;DHT22;2451;49.970;9.068;2022-07-24T07:11:47;24.10;99.90
4874;DHT22;2451;49.970;9.068;2022-07-24T07:14:13;24.20;99.90
4874;DHT22;2451;49.970;9.068;2022-07-24T07:16:38;24.30;99.90
4874;DHT22;2451;49.970;9.068;2022-07-24T07:19:04;24.60;99.90
4874;DHT22;2451;49.970;9.068;2022-07-24T07:21:29;24.90;99.90
4874;DHT22;2451;49.970;9.068;2022-07-24T07:23:55;25.10;99.90
4874;DHT22;2451;49.970;9.068;2022-07-24T07:26:21;25.20;99.90
4874;DHT22;2451;49.970;9.068;2022-07-24T07:28:46;25.30;99.90
4874;DHT22;2451;49.970;9.068;2022-07-24T07:31:12;25.40;99.90
4874;DHT22;2451;49.970;9.068;2022-07-24T07:33:37;25.60;99.90
4874;DHT22;2451;49.970;9.068;2022-07-24T07:36:03;25.70;99.90
4874;DHT22;2451;49.970;9.068;2022-07-24T07:38:29;26.00;99.90
4874;DHT22;2451;49.970;9.068;2022-07-24T07:40:54;26.10;99.90
4874;DHT22;2451;49.970;9.068;2022-07-24T07:43:20;26.30;99.90
4874;DHT22;2451;49.970;9.068;2022-07-24T07:45:45;26.50;99.90
4874;DHT22;2451;49.970;9.068;2022-07-24T07:48:11;26.80;99.90
4874;DHT22;2451;49.970;9.068;2022-07-24T07:50:37;27.00;99.30
4874;DHT22;2451;49.970;9.068;2022-07-24T07:53:02;27.10;99.70
4874;DHT22;2451;49.970;9.068;2022-07-24T07:55:28;27.20;99.30
4874;DHT22;2451;49.970;9.068;2022-07-24T07:57:53;27.20;98.50
4874;DHT22;2451;49.970;9.068;2022-07-24T08:00:19;27.30;99.00
4874;DHT22;2451;49.970;9.068;2022-07-24T08:02:45;27.40;98.10
4874;DHT22;2451;49.970;9.068;2022-07-24T08:05:11;27.50;98.40
4874;DHT22;2451;49.970;9.068;2022-07-24T08:07:36;27.70;97.60
4874;DHT22;2451;49.970;9.068;2022-07-24T08:10:03;27.70;97.00
4874;DHT22;2451;49.970;9.068;2022-07-24T08:12:29;27.90;97.10
4874;DHT22;2451;49.970;9.068;2022-07-24T08:14:55;28.10;96.20
4874;DHT22;2451;49.970;9.068;2022-07-24T08:17:20;28.20;95.70
4874;DHT22;2451;49.970;9.068;2022-07-24T08:19:46;28.30;94.50
4874;DHT22;2451;49.970;9.068;2022-07-24T08:22:11;28.40;94.50
4874;DHT22;2451;49.970;9.068;2022-07-24T08:24:38;28.60;94.90
4874;DHT22;2451;49.970;9.068;2022-07-24T08:27:04;28.80;95.40
4874;DHT22;2451;49.970;9.068;2022-07-24T08:29:30;29.00;94.30
4874;DHT22;2451;49.970;9.068;2022-07-24T08:31:56;29.10;94.20
4874;DHT22;2451;49.970;9.068;2022-07-24T08:34:21;29.30;93.40
4874;DHT22;2451;49.970;9.068;2022-07-24T08:36:47;29.40;92.90
4874;DHT22;2451;49.970;9.068;2022-07-24T08:39:13;29.30;91.90
4874;DHT22;2451;49.970;9.068;2022-07-24T08:41:39;29.50;92.30
4874;DHT22;2451;49.970;9.068;2022-07-24T08:44:05;29.60;91.70
4874;DHT22;2451;49.970;9.068;2022-07-24T08:46:31;29.70;91.70
4874;DHT22;2451;49.970;9.068;2022-07-24T08:48:58;29.90;91.80
4874;DHT22;2451;49.970;9.068;2022-07-24T08:51:31;30.00;91.20
4874;DHT22;2451;49.970;9.068;2022-07-24T08:53:59;30.30;91.30
4874;DHT22;2451;49.970;9.068;2022-07-24T08:56:25;30.70;90.60
4874;DHT22;2451;49.970;9.068;2022-07-24T08:58:51;31.00;88.50
4874;DHT22;2451;49.970;9.068;2022-07-24T09:01:17;31.00;87.20
4874;DHT22;2451;49.970;9.068;2022-07-24T09:03:45;31.00;85.80
4874;DHT22;2451;49.970;9.068;2022-07-24T09:06:13;31.10;86.50
4874;DHT22;2451;49.970;9.068;2022-07-24T09:08:40;31.20;82.60
4874;DHT22;2451;49.970;9.068;2022-07-24T09:11:06;31.30;82.10
4874;DHT22;2451;49.970;9.068;2022-07-24T09:13:33;31.50;80.40
4874;DHT22;2451;49.970;9.068;2022-07-24T09:16:22;31.80;79.70
4874;DHT22;2451;49.970;9.068;2022-07-24T09:18:51;31.90;76.90
4874;DHT22;2451;49.970;9.068;2022-07-24T09:21:17;31.90;76.20
4874;DHT22;2451;49.970;9.068;2022-07-24T09:23:44;32.00;74.00
4874;DHT22;2451;49.970;9.068;2022-07-24T09:26:10;32.20;73.30
4874;DHT22;2451;49.970;9.068;2022-07-24T09:28:54;32.10;73.90
4874;DHT22;2451;49.970;9.068;2022-07-24T09:31:20;32.10;69.60
4874;DHT22;2451;49.970;9.068;2022-07-24T09:33:49;32.20;69.50
4874;DHT22;2451;49.970;9.068;2022-07-24T09:36:17;32.20;68.90
4874;DHT22;2451;49.970;9.068;2022-07-24T09:38:52;32.00;68.10
4874;DHT22;2451;49.970;9.068;2022-07-24T09:41:23;31.90;70.30
4874;DHT22;2451;49.970;9.068;2022-07-24T09:44:02;32.10;73.40
4874;DHT22;2451;49.970;9.068;2022-07-24T09:46:28;32.40;69.90
4874;DHT22;2451;49.970;9.068;2022-07-24T09:48:55;32.20;68.60
4874;DHT22;2451;49.970;9.068;2022-07-24T09:51:23;32.30;68.40
4874;DHT22;2451;49.970;9.068;2022-07-24T09:53:57;32.60;69.90
4874;DHT22;2451;49.970;9.068;2022-07-24T09:56:23;32.90;68.40
4874;DHT22;2451;49.970;9.068;2022-07-24T09:58:52;33.10;67.30
4874;DHT22;2451;49.970;9.068;2022-07-24T10:01:20;33.40;66.60
4874;DHT22;2451;49.970;9.068;2022-07-24T10:03:47;33.60;65.90
4874;DHT22;2451;49.970;9.068;2022-07-24T10:06:14;33.90;65.20
4874;DHT22;2451;49.970;9.068;2022-07-24T10:08:42;33.90;63.00
4874;DHT22;2451;49.970;9.068;2022-07-24T10:11:08;34.00;65.00
4874;DHT22;2451;49.970;9.068;2022-07-24T10:13:35;34.00;62.80
4874;DHT22;2451;49.970;9.068;2022-07-24T10:18:50;34.60;61.20
4874;DHT22;2451;49.970;9.068;2022-07-24T10:21:18;34.70;62.10
4874;DHT22;2451;49.970;9.068;2022-07-24T10:26:40;34.40;59.30
4874;DHT22;2451;49.970;9.068;2022-07-24T10:29:08;34.20;59.50
4874;DHT22;2451;49.970;9.068;2022-07-24T10:31:41;34.00;59.20
4874;DHT22;2451;49.970;9.068;2022-07-24T10:39:36;34.00;60.60
4874;DHT22;2451;49.970;9.068;2022-07-24T10:42:05;34.10;59.70
4874;DHT22;2451;49.970;9.068;2022-07-24T10:44:32;34.30;59.50
4874;DHT22;2451;49.970;9.068;2022-07-24T10:49:41;34.60;59.10
4874;DHT22;2451;49.970;9.068;2022-07-24T10:52:28;34.80;58.30
4874;DHT22;2451;49.970;9.068;2022-07-24T10:55:19;34.40;57.50
4874;DHT22;2451;49.970;9.068;2022-07-24T10:58:01;34.40;58.40
4874;DHT22;2451;49.970;9.068;2022-07-24T11:00:35;34.20;57.50
4874;DHT22;2451;49.970;9.068;2022-07-24T11:03:24;34.20;58.40
4874;DHT22;2451;49.970;9.068;2022-07-24T11:08:37;34.10;58.00
4874;DHT22;2451;49.970;9.068;2022-07-24T11:21:35;34.30;56.90
4874;DHT22;2451;49.970;9.068;2022-07-24T11:24:19;34.60;57.80
4874;DHT22;2451;49.970;9.068;2022-07-24T11:26:55;34.70;58.40
4874;DHT22;2451;49.970;9.068;2022-07-24T11:29:26;34.60;57.50
4874;DHT22;2451;49.970;9.068;2022-07-24T11:32:04;34.60;57.70
4874;DHT22;2451;49.970;9.068;2022-07-24T11:34:30;34.90;56.50
4874;DHT22;2451;49.970;9.068;2022-07-24T11:36:57;35.00;56.40
4874;DHT22;2451;49.970;9.068;2022-07-24T11:39:31;35.10;56.10
4874;DHT22;2451;49.970;9.068;2022-07-24T11:41:59;34.90;55.40
4874;DHT22;2451;49.970;9.068;2022-07-24T11:44:33;35.10;54.00
4874;DHT22;2451;49.970;9.068;2022-07-24T11:47:09;35.00;53.40
4874;DHT22;2451;49.970;9.068;2022-07-24T11:49:47;34.70;53.60
4874;DHT22;2451;49.970;9.068;2022-07-24T11:52:15;34.70;54.50
4874;DHT22;2451;49.970;9.068;2022-07-24T11:54:41;34.50;54.60
4874;DHT22;2451;49.970;9.068;2022-07-24T11:57:16;34.70;56.10
4874;DHT22;2451;49.970;9.068;2022-07-24T11:59:43;35.10;54.10
4874;DHT22;2451;49.970;9.068;2022-07-24T12:02:10;35.30;52.90
4874;DHT22;2451;49.970;9.068;2022-07-24T12:04:37;35.70;53.00
4874;DHT22;2451;49.970;9.068;2022-07-24T12:07:08;35.70;51.80
4874;DHT22;2451;49.970;9.068;2022-07-24T12:09:54;36.00;51.70
4874;DHT22;2451;49.970;9.068;2022-07-24T12:12:29;36.20;51.40
4874;DHT22;2451;49.970;9.068;2022-07-24T12:15:12;35.80;49.50
4874;DHT22;2451;49.970;9.068;2022-07-24T12:17:54;35.80;52.80
4874;DHT22;2451;49.970;9.068;2022-07-24T12:20:26;35.80;52.30
4874;DHT22;2451;49.970;9.068;2022-07-24T12:22:52;35.70;52.10
4874;DHT22;2451;49.970;9.068;2022-07-24T12:25:18;35.50;52.20
4874;DHT22;2451;49.970;9.068;2022-07-24T12:27:45;35.50;52.00
4874;DHT22;2451;49.970;9.068;2022-07-24T12:30:22;35.40;51.30
4874;DHT22;2451;49.970;9.068;2022-07-24T12:35:23;35.60;51.30
4874;DHT22;2451;49.970;9.068;2022-07-24T12:37:48;35.80;51.50
4874;DHT22;2451;49.970;9.068;2022-07-24T12:40:29;35.70;51.40
4874;DHT22;2451;49.970;9.068;2022-07-24T12:42:57;35.90;51.30
4874;DHT22;2451;49.970;9.068;2022-07-24T12:45:22;36.40;51.50
4874;DHT22;2451;49.970;9.068;2022-07-24T12:48:08;36.80;51.20
4874;DHT22;2451;49.970;9.068;2022-07-24T12:50:34;36.60;49.50
4874;DHT22;2451;49.970;9.068;2022-07-24T12:53:08;36.60;50.70
4874;DHT22;2451;49.970;9.068;2022-07-24T12:55:34;36.20;48.80
4874;DHT22;2451;49.970;9.068;2022-07-24T12:58:01;36.30;51.60
4874;DHT22;2451;49.970;9.068;2022-07-24T13:00:28;36.10;49.00
4874;DHT22;2451;49.970;9.068;2022-07-24T13:02:54;35.80;50.60
4874;DHT22;2451;49.970;9.068;2022-07-24T13:05:41;35.20;50.10
4874;DHT22;2451;49.970;9.068;2022-07-24T13:08:10;34.50;50.50
4874;DHT22;2451;49.970;9.068;2022-07-24T13:10:35;34.40;51.40
4874;DHT22;2451;49.970;9.068;2022-07-24T13:13:01;34.60;52.00
4874;DHT22;2451;49.970;9.068;2022-07-24T13:15:27;34.80;51.80
4874;DHT22;2451;49.970;9.068;2022-07-24T13:17:53;34.90;51.10
4874;DHT22;2451;49.970;9.068;2022-07-24T13:20:18;35.20;51.10
4874;DHT22;2451;49.970;9.068;2022-07-24T13:22:44;35.30;50.50
4874;DHT22;2451;49.970;9.068;2022-07-24T13:25:09;35.20;50.50
4874;DHT22;2451;49.970;9.068;2022-07-24T13:27:35;35.20;50.50
4874;DHT22;2451;49.970;9.068;2022-07-24T13:30:02;35.00;50.40
4874;DHT22;2451;49.970;9.068;2022-07-24T13:32:27;35.00;50.60
4874;DHT22;2451;49.970;9.068;2022-07-24T13:34:53;34.90;50.50
4874;DHT22;2451;49.970;9.068;2022-07-24T13:37:19;34.90;50.10
4874;DHT22;2451;49.970;9.068;2022-07-24T13:39:45;35.20;50.70
4874;DHT22;2451;49.970;9.068;2022-07-24T13:42:10;35.00;50.20
4874;DHT22;2451;49.970;9.068;2022-07-24T13:44:36;34.90;50.10
4874;DHT22;2451;49.970;9.068;2022-07-24T13:47:02;34.70;50.60
4874;DHT22;2451;49.970;9.068;2022-07-24T13:49:28;34.70;50.60
4874;DHT22;2451;49.970;9.068;2022-07-24T13:51:53;34.40;50.20
4874;DHT22;2451;49.970;9.068;2022-07-24T13:54:19;34.40;50.80
4874;DHT22;2451;49.970;9.068;2022-07-24T13:56:44;34.30;51.30
4874;DHT22;2451;49.970;9.068;2022-07-24T13:59:10;34.50;51.50
4874;DHT22;2451;49.970;9.068;2022-07-24T14:01:36;34.70;50.70
4874;DHT22;2451;49.970;9.068;2022-07-24T14:04:03;34.70;50.20
4874;DHT22;2451;49.970;9.068;2022-07-24T14:06:29;34.70;51.60
4874;DHT22;2451;49.970;9.068;2022-07-24T14:08:55;34.80;50.60
4874;DHT22;2451;49.970;9.068;2022-07-24T14:11:21;34.80;50.50
4874;DHT22;2451;49.970;9.068;2022-07-24T14:13:46;34.90;51.30
4874;DHT22;2451;49.970;9.068;2022-07-24T14:16:12;35.00;50.50
4874;DHT22;2451;49.970;9.068;2022-07-24T14:18:38;34.90;50.20
4874;DHT22;2451;49.970;9.068;2022-07-24T14:21:04;34.70;51.60
4874;DHT22;2451;49.970;9.068;2022-07-24T14:23:29;34.80;50.50
4874;DHT22;2451;49.970;9.068;2022-07-24T14:25:55;34.90;51.60
4874;DHT22;2451;49.970;9.068;2022-07-24T14:28:20;35.00;52.20
4874;DHT22;2451;49.970;9.068;2022-07-24T14:30:46;35.10;51.60
4874;DHT22;2451;49.970;9.068;2022-07-24T14:33:12;34.90;50.20
4874;DHT22;2451;49.970;9.068;2022-07-24T14:35:37;34.70;50.40
4874;DHT22;2451;49.970;9.068;2022-07-24T14:38:03;34.50;50.30
4874;DHT22;2451;49.970;9.068;2022-07-24T14:40:29;34.40;50.50
4874;DHT22;2451;49.970;9.068;2022-07-24T14:42:54;34.30;50.60
4874;DHT22;2451;49.970;9.068;2022-07-24T14:45:21;34.40;50.80
4874;DHT22;2451;49.970;9.068;2022-07-24T14:47:47;34.50;50.30
4874;DHT22;2451;49.970;9.068;2022-07-24T14:50:12;34.50;50.10
4874;DHT22;2451;49.970;9.068;2022-07-24T14:52:38;34.40;50.40
4874;DHT22;2451;49.970;9.068;2022-07-24T14:55:05;34.50;50.80
4874;DHT22;2451;49.970;9.068;2022-07-24T14:57:33;34.40;50.00
4874;DHT22;2451;49.970;9.068;2022-07-24T14:59:59;34.50;51.10
4874;DHT22;2451;49.970;9.068;2022-07-24T15:02:24;34.50;50.40
4874;DHT22;2451;49.970;9.068;2022-07-24T15:04:50;34.60;50.80
4874;DHT22;2451;49.970;9.068;2022-07-24T15:07:16;34.70;51.00
4874;DHT22;2451;49.970;9.068;2022-07-24T15:09:42;34.60;50.40
4874;DHT22;2451;49.970;9.068;2022-07-24T15:12:07;34.60;50.70
4874;DHT22;2451;49.970;9.068;2022-07-24T15:14:33;34.60;51.20
4874;DHT22;2451;49.970;9.068;2022-07-24T15:16:59;34.70;50.80
4874;DHT22;2451;49.970;9.068;2022-07-24T15:19:25;34.70;50.40
4874;DHT22;2451;49.970;9.068;2022-07-24T15:21:50;34.90;51.60
4874;DHT22;2451;49.970;9.068;2022-07-24T15:24:16;34.90;50.80
4874;DHT22;2451;49.970;9.068;2022-07-24T15:26:41;34.90;49.90
4874;DHT22;2451;49.970;9.068;2022-07-24T15:29:07;34.90;51.00
4874;DHT22;2451;49.970;9.068;2022-07-24T15:31:33;34.80;50.20
4874;DHT22;2451;49.970;9.068;2022-07-24T15:33:58;34.90;50.20
4874;DHT22;2451;49.970;9.068;2022-07-24T15:36:24;34.90;49.50
4874;DHT22;2451;49.970;9.068;2022-07-24T15:38:50;34.90;50.30
4874;DHT22;2451;49.970;9.068;2022-07-24T15:41:15;34.80;50.50
4874;DHT22;2451;49.970;9.068;2022-07-24T15:43:41;34.80;50.00
4874;DHT22;2451;49.970;9.068;2022-07-24T15:46:07;34.80;49.90
4874;DHT22;2451;49.970;9.068;2022-07-24T15:48:32;34.80;50.00
4874;DHT22;2451;49.970;9.068;2022-07-24T15:50:58;34.60;49.80
4874;DHT22;2451;49.970;9.068;2022-07-24T15:53:24;34.50;50.70
4874;DHT22;2451;49.970;9.068;2022-07-24T15:55:49;34.40;49.90
4874;DHT22;2451;49.970;9.068;2022-07-24T15:58:15;34.40;51.10
4874;DHT22;2451;49.970;9.068;2022-07-24T16:00:40;34.50;51.00
4874;DHT22;2451;49.970;9.068;2022-07-24T16:03:06;34.50;50.00
4874;DHT22;2451;49.970;9.068;2022-07-24T16:05:31;34.40;49.70
4874;DHT22;2451;49.970;9.068;2022-07-24T16:07:57;34.20;50.50
4874;DHT22;2451;49.970;9.068;2022-07-24T16:10:24;33.90;49.60
4874;DHT22;2451;49.970;9.068;2022-07-24T16:12:50;33.70;50.00
4874;DHT22;2451;49.970;9.068;2022-07-24T16:15:17;33.40;50.40
4874;DHT22;2451;49.970;9.068;2022-07-24T16:17:43;33.20;50.80
4874;DHT22;2451;49.970;9.068;2022-07-24T16:20:09;33.00;51.40
4874;DHT22;2451;49.970;9.068;2022-07-24T16:22:36;33.10;51.20
4874;DHT22;2451;49.970;9.068;2022-07-24T16:25:03;33.10;51.30
4874;DHT22;2451;49.970;9.068;2022-07-24T16:27:29;33.20;51.40
4874;DHT22;2451;49.970;9.068;2022-07-24T16:29:55;33.20;51.10